Independence, Oregon
Current Conditions -  °F | °C
As of 8:56 PM on Sunday 19 Oct 2014 (Local Time) from KSLE Reporting Station
Broken Clouds Broken Clouds  
Wind Chill: 62°   Ceiling: 11000
Heat Index: 62°   Visibility: 10mi
Dew Point: 55°   Wind: 5mph
Humidity: 78%   Direction: 240°WSW
Pressure: 29.72"   Gusts: NA
Location:  44.85°N, 123.19°W
Report Text: KSLE 200356Z AUTO 24004KT 10SM BKN110 17/13 A2972 RMK AO2 SLP062 T01670128
Loading
Personal Weather Stations






























Interactive Weather Map
Tropical Storm Tracking
New forecast layout! Learn more

10-Day Weather Forecast

Advertisements
Track Severe Weather on mobile